Time;durP1;ratioP1;P1;durP2;ratioP2;P2;SDS_P1;SDS_P2;PMS_P1;PMS_P2;Temp;Humidity;BMP_temperature;BMP_pressure;BME280_temperature;BME280_humidity;BME280_pressure;Samples;Min_cycle;Max_cycle;Signal;HPM_P1;HPM_P2
2022/04/09 00:01:27;;;;;;;;;;;6.60;99.90;;;;;;5035223;28;19956;-67
2022/04/09 00:03:52;;;;;;;;;;;6.50;99.90;;;;;;5035839;28;20413;-66
2022/04/09 00:06:18;;;;;;;;;;;6.50;99.90;;;;;;5035220;28;19967;-66
2022/04/09 00:08:44;;;;;;;;;;;6.70;99.90;;;;;;5035493;28;19959;-68
2022/04/09 00:11:09;;;;;;;;;;;6.70;99.90;;;;;;5033595;28;19909;-68
2022/04/09 00:13:35;;;;;;;;;;;6.70;99.90;;;;;;5034856;28;19914;-68
2022/04/09 00:16:03;;;;;;;;;;;6.70;99.90;;;;;;5007652;28;19917;-68
2022/04/09 00:18:29;;;;;;;;;;;6.70;99.90;;;;;;5014721;28;19914;-68
2022/04/09 00:20:55;;;;;;;;;;;6.80;99.90;;;;;;5014767;28;20289;-68
2022/04/09 00:23:23;;;;;;;;;;;6.80;99.90;;;;;;5014765;28;19910;-67
2022/04/09 00:25:48;;;;;;;;;;;6.80;99.90;;;;;;5014863;28;19913;-68
2022/04/09 00:28:13;;;;;;;;;;;6.90;99.90;;;;;;5014616;28;19909;-68
2022/04/09 00:30:39;;;;;;;;;;;7.00;99.90;;;;;;5014470;28;20358;-67
2022/04/09 00:33:04;;;;;;;;;;;6.90;99.90;;;;;;5015031;28;20000;-66
2022/04/09 00:35:30;;;;;;;;;;;6.90;99.90;;;;;;5014001;28;19910;-67
2022/04/09 00:37:55;;;;;;;;;;;6.90;99.90;;;;;;5014586;28;19909;-68
2022/04/09 00:40:23;;;;;;;;;;;7.00;99.90;;;;;;5014343;28;19910;-67
2022/04/09 00:42:49;;;;;;;;;;;7.00;99.90;;;;;;5014365;28;20366;-66
2022/04/09 00:45:14;;;;;;;;;;;7.00;99.90;;;;;;5014362;28;19962;-67
2022/04/09 00:47:40;;;;;;;;;;;7.00;99.90;;;;;;5014120;28;19959;-67
2022/04/09 00:50:07;;;;;;;;;;;6.90;99.90;;;;;;5013849;28;19914;-68
2022/04/09 00:52:33;;;;;;;;;;;6.90;99.90;;;;;;5014390;28;19924;-67
2022/04/09 00:55:01;;;;;;;;;;;7.00;99.90;;;;;;5015349;28;19910;-68
2022/04/09 00:57:26;;;;;;;;;;;7.10;99.90;;;;;;5014722;28;19917;-67
2022/04/09 00:59:52;;;;;;;;;;;7.10;99.90;;;;;;5013485;28;20251;-66
2022/04/09 01:02:18;;;;;;;;;;;6.90;99.90;;;;;;5014226;28;19956;-68
2022/04/09 01:04:43;;;;;;;;;;;6.90;99.90;;;;;;5013704;28;19960;-68
2022/04/09 01:07:09;;;;;;;;;;;7.00;99.90;;;;;;5013952;28;19952;-68
2022/04/09 01:09:34;;;;;;;;;;;7.00;99.90;;;;;;5013816;28;19968;-68
2022/04/09 01:12:01;;;;;;;;;;;7.10;99.90;;;;;;5013967;28;19909;-68
2022/04/09 01:14:26;;;;;;;;;;;7.10;99.90;;;;;;5014053;28;19932;-67
2022/04/09 01:19:17;;;;;;;;;;;7.10;99.90;;;;;;5024499;22;20469;-69
2022/04/09 01:21:42;;;;;;;;;;;7.10;99.90;;;;;;4993464;28;20406;-69
2022/04/09 01:24:08;;;;;;;;;;;7.10;99.90;;;;;;4993712;28;20302;-69
2022/04/09 01:26:34;;;;;;;;;;;6.80;99.90;;;;;;4993380;28;19910;-68
2022/04/09 01:28:59;;;;;;;;;;;6.70;99.90;;;;;;4993459;28;19926;-69
2022/04/09 01:31:25;;;;;;;;;;;6.40;99.90;;;;;;4993368;28;19981;-69
2022/04/09 01:33:50;;;;;;;;;;;6.30;99.90;;;;;;4993181;28;20434;-69
2022/04/09 01:36:16;;;;;;;;;;;6.10;99.90;;;;;;4993742;28;19909;-69
2022/04/09 01:38:41;;;;;;;;;;;6.00;99.90;;;;;;4993315;28;20291;-69
2022/04/09 01:41:07;;;;;;;;;;;6.00;99.90;;;;;;4993156;28;20346;-70
2022/04/09 01:43:32;;;;;;;;;;;6.10;99.90;;;;;;4993396;28;19941;-69
2022/04/09 01:45:58;;;;;;;;;;;6.20;99.90;;;;;;4993632;28;20286;-69
2022/04/09 01:48:23;;;;;;;;;;;6.40;99.90;;;;;;4993125;28;19910;-69
2022/04/09 01:50:49;;;;;;;;;;;6.50;99.90;;;;;;4993202;28;19910;-69
2022/04/09 01:53:15;;;;;;;;;;;6.50;99.90;;;;;;4993204;28;19974;-70
2022/04/09 01:55:40;;;;;;;;;;;6.50;99.90;;;;;;4993167;28;19941;-70
2022/04/09 01:58:05;;;;;;;;;;;6.40;99.90;;;;;;4993081;28;19910;-69
2022/04/09 02:00:31;;;;;;;;;;;6.50;99.90;;;;;;4992883;28;19985;-70
2022/04/09 02:02:56;;;;;;;;;;;6.50;99.90;;;;;;4993022;28;20391;-69
2022/04/09 02:05:23;;;;;;;;;;;6.60;99.90;;;;;;4992922;28;19945;-68
2022/04/09 02:07:48;;;;;;;;;;;6.60;99.90;;;;;;4993107;28;19909;-69
2022/04/09 02:10:15;;;;;;;;;;;6.60;99.90;;;;;;4993153;28;19945;-70
2022/04/09 02:12:41;;;;;;;;;;;6.60;99.90;;;;;;4993301;28;20453;-70
2022/04/09 02:15:10;;;;;;;;;;;6.70;99.90;;;;;;4993057;28;19909;-69
2022/04/09 02:17:36;;;;;;;;;;;6.70;99.90;;;;;;4992743;28;19918;-70
2022/04/09 02:20:02;;;;;;;;;;;6.70;99.90;;;;;;4992485;28;19963;-70
2022/04/09 02:22:32;;;;;;;;;;;6.70;99.90;;;;;;4992973;28;20428;-70
2022/04/09 02:24:58;;;;;;;;;;;6.70;99.90;;;;;;4992926;28;19964;-70
2022/04/09 02:27:23;;;;;;;;;;;6.70;99.90;;;;;;4992689;28;19909;-69
2022/04/09 02:29:48;;;;;;;;;;;6.80;99.90;;;;;;4992507;28;19967;-69
2022/04/09 02:32:14;;;;;;;;;;;6.80;99.90;;;;;;4992483;28;19921;-70
2022/04/09 02:34:39;;;;;;;;;;;6.80;99.90;;;;;;4991524;28;19910;-69
2022/04/09 02:37:05;;;;;;;;;;;6.80;99.90;;;;;;4992055;28;19914;-69
2022/04/09 02:39:31;;;;;;;;;;;6.60;99.90;;;;;;4992177;28;20012;-70
2022/04/09 02:41:57;;;;;;;;;;;6.50;99.90;;;;;;4992485;28;19922;-70
2022/04/09 02:44:23;;;;;;;;;;;6.50;99.90;;;;;;4992875;28;19917;-70
2022/04/09 02:46:48;;;;;;;;;;;6.50;99.90;;;;;;4975315;28;19910;-70
2022/04/09 02:49:14;;;;;;;;;;;6.50;99.90;;;;;;4992134;28;19914;-69
2022/04/09 02:51:40;;;;;;;;;;;6.50;99.90;;;;;;4992464;28;19945;-70
2022/04/09 02:54:05;;;;;;;;;;;6.50;99.90;;;;;;4992573;28;19909;-70
2022/04/09 02:56:31;;;;;;;;;;;6.20;99.90;;;;;;4992713;28;19964;-70
2022/04/09 02:58:56;;;;;;;;;;;6.10;99.90;;;;;;4992448;28;19918;-69
2022/04/09 03:01:23;;;;;;;;;;;6.10;99.90;;;;;;4992609;28;19910;-70
2022/04/09 03:03:48;;;;;;;;;;;6.20;99.90;;;;;;4992169;28;19933;-70
2022/04/09 03:06:14;;;;;;;;;;;6.20;99.90;;;;;;4992523;28;20375;-69
2022/04/09 03:08:39;;;;;;;;;;;6.20;99.90;;;;;;4991982;28;19921;-70
2022/04/09 03:11:04;;;;;;;;;;;6.10;99.90;;;;;;4992060;28;19913;-69
2022/04/09 03:13:30;;;;;;;;;;;6.00;99.90;;;;;;4992113;28;19917;-68
2022/04/09 03:15:55;;;;;;;;;;;6.00;99.90;;;;;;4992376;28;20004;-69
2022/04/09 03:18:21;;;;;;;;;;;6.10;99.90;;;;;;4992163;28;19918;-69
2022/04/09 03:20:46;;;;;;;;;;;6.30;99.90;;;;;;4991833;28;19910;-69
2022/04/09 03:23:12;;;;;;;;;;;6.00;99.90;;;;;;4993873;28;19910;-70
2022/04/09 03:25:37;;;;;;;;;;;5.90;99.90;;;;;;4995777;28;19910;-69
2022/04/09 03:28:03;;;;;;;;;;;6.10;99.90;;;;;;4995649;28;19934;-68
2022/04/09 03:30:28;;;;;;;;;;;6.10;99.90;;;;;;4995274;28;19918;-69
2022/04/09 03:32:54;;;;;;;;;;;6.10;99.90;;;;;;4994635;28;20440;-68
2022/04/09 03:35:19;;;;;;;;;;;5.90;99.90;;;;;;4999227;28;19922;-71
2022/04/09 03:37:45;;;;;;;;;;;5.70;99.90;;;;;;5009280;28;20397;-69
2022/04/09 03:40:12;;;;;;;;;;;5.80;99.90;;;;;;5008925;28;20453;-70
2022/04/09 03:42:38;;;;;;;;;;;5.80;99.90;;;;;;5011708;28;19932;-70
2022/04/09 03:45:03;;;;;;;;;;;5.70;99.90;;;;;;5014981;28;20363;-69
2022/04/09 03:47:31;;;;;;;;;;;5.90;99.90;;;;;;5014980;28;20060;-70
2022/04/09 03:49:57;;;;;;;;;;;6.00;99.90;;;;;;5014334;28;20301;-69
2022/04/09 03:52:22;;;;;;;;;;;6.00;99.90;;;;;;5009801;28;19913;-70
2022/04/09 03:54:48;;;;;;;;;;;5.80;99.90;;;;;;5012146;28;19985;-69
2022/04/09 03:57:13;;;;;;;;;;;5.90;99.90;;;;;;5010653;28;19936;-69
2022/04/09 03:59:38;;;;;;;;;;;5.90;99.90;;;;;;5014555;28;20294;-69
2022/04/09 04:02:04;;;;;;;;;;;5.80;99.90;;;;;;5014289;28;20345;-69
2022/04/09 04:04:29;;;;;;;;;;;5.90;99.90;;;;;;5014796;28;20289;-69
2022/04/09 04:06:55;;;;;;;;;;;5.90;99.90;;;;;;5014673;28;19921;-69
2022/04/09 04:09:20;;;;;;;;;;;5.90;99.90;;;;;;5014511;28;20282;-69
2022/04/09 04:11:46;;;;;;;;;;;6.00;99.90;;;;;;5015026;28;19909;-69
2022/04/09 04:14:12;;;;;;;;;;;6.20;99.90;;;;;;5014840;28;20417;-69
2022/04/09 04:16:37;;;;;;;;;;;6.20;99.90;;;;;;5014594;28;19913;-69
2022/04/09 04:19:03;;;;;;;;;;;6.30;99.90;;;;;;5014336;28;19918;-69
2022/04/09 04:21:28;;;;;;;;;;;6.30;99.90;;;;;;5014227;28;19913;-68
2022/04/09 04:23:54;;;;;;;;;;;6.30;99.90;;;;;;5014229;28;19916;-69
2022/04/09 04:26:19;;;;;;;;;;;6.40;99.90;;;;;;5014279;28;19991;-69
2022/04/09 04:28:48;;;;;;;;;;;6.40;99.90;;;;;;5014003;28;19988;-68
2022/04/09 04:31:16;;;;;;;;;;;6.30;99.90;;;;;;5013957;28;20341;-69
2022/04/09 04:33:42;;;;;;;;;;;6.20;99.90;;;;;;5014346;28;20307;-69
2022/04/09 04:36:07;;;;;;;;;;;6.30;99.90;;;;;;5013186;28;19953;-68
2022/04/09 04:38:32;;;;;;;;;;;6.40;99.90;;;;;;5013900;28;19925;-69
2022/04/09 04:40:59;;;;;;;;;;;6.50;99.90;;;;;;5013759;28;19934;-69
2022/04/09 04:43:24;;;;;;;;;;;6.50;99.90;;;;;;5014008;28;20286;-70
2022/04/09 04:45:50;;;;;;;;;;;6.50;99.90;;;;;;5013694;28;20073;-69
2022/04/09 04:48:15;;;;;;;;;;;6.50;99.90;;;;;;5013967;28;20367;-70
2022/04/09 04:50:40;;;;;;;;;;;6.50;99.90;;;;;;5013733;28;20397;-69
2022/04/09 04:53:06;;;;;;;;;;;6.50;99.90;;;;;;5012719;28;20000;-70
2022/04/09 04:55:31;;;;;;;;;;;6.50;99.90;;;;;;5014183;28;19910;-70
2022/04/09 04:57:57;;;;;;;;;;;6.30;99.90;;;;;;5013539;28;19910;-69
2022/04/09 05:00:23;;;;;;;;;;;6.20;99.90;;;;;;5013860;28;20004;-69
2022/04/09 05:02:49;;;;;;;;;;;6.20;99.90;;;;;;5012763;28;20328;-70
2022/04/09 05:05:15;;;;;;;;;;;6.30;99.90;;;;;;5013550;28;20059;-70
2022/04/09 05:07:41;;;;;;;;;;;6.30;99.90;;;;;;5013776;28;19916;-69
2022/04/09 05:10:11;;;;;;;;;;;6.30;99.90;;;;;;5013018;28;19913;-69
2022/04/09 05:12:36;;;;;;;;;;;6.30;99.90;;;;;;5013414;28;19976;-69
2022/04/09 05:15:02;;;;;;;;;;;6.30;99.90;;;;;;5013408;28;19910;-70
2022/04/09 05:17:28;;;;;;;;;;;6.30;99.90;;;;;;5013406;28;20377;-70
2022/04/09 05:19:53;;;;;;;;;;;6.40;99.90;;;;;;5013159;28;19916;-69
2022/04/09 05:22:19;;;;;;;;;;;6.50;99.90;;;;;;5013051;28;20290;-69
2022/04/09 05:24:44;;;;;;;;;;;6.70;99.90;;;;;;5013110;28;19914;-69
2022/04/09 05:27:10;;;;;;;;;;;6.80;99.90;;;;;;5013230;28;20289;-70
2022/04/09 05:29:35;;;;;;;;;;;6.80;99.90;;;;;;5012784;28;20342;-69
2022/04/09 05:32:00;;;;;;;;;;;6.80;99.90;;;;;;5013265;28;20386;-69
2022/04/09 05:34:26;;;;;;;;;;;6.70;99.90;;;;;;5012871;28;19909;-69
2022/04/09 05:36:51;;;;;;;;;;;6.70;99.90;;;;;;5013113;28;19913;-69
2022/04/09 05:39:17;;;;;;;;;;;6.80;99.90;;;;;;5012454;28;20004;-69
2022/04/09 05:41:43;;;;;;;;;;;6.80;99.90;;;;;;5013092;28;19967;-69
2022/04/09 05:44:09;;;;;;;;;;;6.70;99.90;;;;;;5012873;28;19914;-69
2022/04/09 05:46:34;;;;;;;;;;;6.70;99.90;;;;;;5011802;28;19971;-69
2022/04/09 05:49:00;;;;;;;;;;;6.60;99.90;;;;;;5012576;28;20410;-69
2022/04/09 05:51:25;;;;;;;;;;;6.60;99.90;;;;;;5012527;28;19917;-69
2022/04/09 05:53:51;;;;;;;;;;;6.70;99.90;;;;;;5011617;28;19961;-70
2022/04/09 05:56:16;;;;;;;;;;;6.80;99.90;;;;;;5012409;28;20370;-69
2022/04/09 05:58:42;;;;;;;;;;;6.80;99.90;;;;;;5012307;28;20016;-69
2022/04/09 06:01:07;;;;;;;;;;;6.80;99.90;;;;;;5011732;28;19949;-69
2022/04/09 06:03:33;;;;;;;;;;;6.90;99.90;;;;;;5012078;28;19910;-69
2022/04/09 06:05:58;;;;;;;;;;;6.80;99.90;;;;;;5011753;28;19909;-69
2022/04/09 06:08:24;;;;;;;;;;;6.70;99.90;;;;;;5011849;28;20056;-69
2022/04/09 06:10:50;;;;;;;;;;;6.70;99.90;;;;;;5011050;28;20501;-70
2022/04/09 06:13:16;;;;;;;;;;;6.80;99.90;;;;;;5011649;28;20305;-71
2022/04/09 06:15:41;;;;;;;;;;;6.70;99.90;;;;;;5011875;28;19920;-70
2022/04/09 06:18:08;;;;;;;;;;;6.80;99.90;;;;;;5011663;28;20328;-70
2022/04/09 06:20:33;;;;;;;;;;;6.70;99.90;;;;;;5011203;28;19996;-70
2022/04/09 06:22:59;;;;;;;;;;;6.70;99.90;;;;;;5011657;28;19916;-69
2022/04/09 06:25:25;;;;;;;;;;;6.70;99.90;;;;;;5011947;28;19914;-69
2022/04/09 06:27:51;;;;;;;;;;;6.60;99.90;;;;;;5011529;28;19914;-68
2022/04/09 06:30:16;;;;;;;;;;;6.80;99.90;;;;;;5011100;28;19921;-70
2022/04/09 06:32:41;;;;;;;;;;;6.80;99.90;;;;;;5011383;28;19909;-69
2022/04/09 06:35:07;;;;;;;;;;;6.70;99.90;;;;;;5011767;28;20329;-68
2022/04/09 06:37:36;;;;;;;;;;;6.80;99.90;;;;;;5012273;28;20442;-70
2022/04/09 06:40:01;;;;;;;;;;;6.90;99.90;;;;;;5011745;28;19941;-69
2022/04/09 06:42:27;;;;;;;;;;;7.00;99.90;;;;;;5011934;28;20394;-70
2022/04/09 06:44:53;;;;;;;;;;;7.10;99.90;;;;;;5012087;28;19910;-69
2022/04/09 06:47:18;;;;;;;;;;;7.10;99.90;;;;;;5011900;28;20286;-70
2022/04/09 06:49:43;;;;;;;;;;;7.10;99.90;;;;;;5010368;28;19913;-69
2022/04/09 06:52:09;;;;;;;;;;;7.10;99.90;;;;;;5009099;28;19918;-69
2022/04/09 06:54:34;;;;;;;;;;;7.00;99.90;;;;;;5011672;28;19913;-69
2022/04/09 06:57:00;;;;;;;;;;;7.00;99.90;;;;;;5011168;28;19909;-69
2022/04/09 06:59:25;;;;;;;;;;;7.10;99.90;;;;;;5015430;28;19922;-70
2022/04/09 07:01:51;;;;;;;;;;;7.20;99.90;;;;;;5015119;28;20357;-69
2022/04/09 07:04:16;;;;;;;;;;;7.20;99.90;;;;;;5015177;28;20000;-70
2022/04/09 07:06:44;;;;;;;;;;;7.20;99.90;;;;;;5015527;28;19993;-69
2022/04/09 07:09:09;;;;;;;;;;;7.20;99.90;;;;;;5014867;28;19913;-69
2022/04/09 07:11:35;;;;;;;;;;;7.30;99.90;;;;;;5015050;28;19920;-70
2022/04/09 07:14:00;;;;;;;;;;;7.40;99.90;;;;;;5014537;28;19968;-69
2022/04/09 07:16:26;;;;;;;;;;;7.40;99.90;;;;;;5015462;28;19913;-70
2022/04/09 07:18:51;;;;;;;;;;;7.40;99.90;;;;;;5015084;28;19921;-69
2022/04/09 07:21:17;;;;;;;;;;;7.60;99.90;;;;;;5014735;28;19910;-69
2022/04/09 07:23:42;;;;;;;;;;;7.50;99.90;;;;;;5014573;28;19910;-70
2022/04/09 07:26:08;;;;;;;;;;;7.50;99.90;;;;;;5014561;28;19916;-70
2022/04/09 07:28:33;;;;;;;;;;;7.60;99.90;;;;;;5014531;28;19917;-69
2022/04/09 07:30:58;;;;;;;;;;;7.60;99.90;;;;;;5014307;28;19976;-70
2022/04/09 07:33:24;;;;;;;;;;;7.60;99.90;;;;;;5014406;28;19921;-70
2022/04/09 07:35:49;;;;;;;;;;;7.60;99.90;;;;;;5014593;28;19909;-69
2022/04/09 07:38:15;;;;;;;;;;;7.70;99.90;;;;;;5014281;28;19913;-70
2022/04/09 07:40:40;;;;;;;;;;;7.80;99.90;;;;;;5014214;28;19910;-70
2022/04/09 07:43:06;;;;;;;;;;;7.90;99.90;;;;;;5014070;28;19953;-70
2022/04/09 07:45:31;;;;;;;;;;;8.00;99.90;;;;;;5014377;28;19914;-69
2022/04/09 07:47:58;;;;;;;;;;;7.90;99.90;;;;;;5014312;28;20485;-70
2022/04/09 07:50:25;;;;;;;;;;;7.90;99.90;;;;;;5014006;28;20012;-70
2022/04/09 07:52:51;;;;;;;;;;;8.10;99.90;;;;;;5014258;28;19928;-71
2022/04/09 07:55:16;;;;;;;;;;;8.10;99.90;;;;;;5012838;28;20000;-70
2022/04/09 07:57:45;;;;;;;;;;;8.00;99.90;;;;;;5024215;23;20444;-66
2022/04/09 08:00:12;;;;;;;;;;;8.20;99.90;;;;;;5015614;28;19916;-68
2022/04/09 08:02:37;;;;;;;;;;;8.20;99.90;;;;;;5016246;28;19940;-68
2022/04/09 08:05:03;;;;;;;;;;;8.20;99.90;;;;;;5016342;28;19910;-69
2022/04/09 08:07:28;;;;;;;;;;;7.80;99.90;;;;;;5014260;28;19972;-70
2022/04/09 08:09:54;;;;;;;;;;;7.30;99.90;;;;;;5012203;28;19929;-70
2022/04/09 08:12:19;;;;;;;;;;;7.10;99.90;;;;;;5013189;28;19913;-69
2022/04/09 08:14:45;;;;;;;;;;;7.20;99.90;;;;;;5013055;28;19909;-67
2022/04/09 08:17:10;;;;;;;;;;;7.20;99.90;;;;;;5012684;28;20004;-68
2022/04/09 08:19:36;;;;;;;;;;;7.40;99.90;;;;;;5013360;28;19916;-68
2022/04/09 08:22:02;;;;;;;;;;;7.50;99.90;;;;;;5014810;28;19921;-67
2022/04/09 08:24:27;;;;;;;;;;;7.60;99.90;;;;;;5014785;28;19909;-67
2022/04/09 08:26:53;;;;;;;;;;;7.60;99.90;;;;;;5014422;28;19937;-66
2022/04/09 08:29:20;;;;;;;;;;;7.50;99.90;;;;;;5013905;28;19920;-68
2022/04/09 08:31:47;;;;;;;;;;;7.40;99.90;;;;;;5014623;28;20168;-67
2022/04/09 08:34:17;;;;;;;;;;;7.50;99.90;;;;;;5014264;28;20109;-69
2022/04/09 08:36:42;;;;;;;;;;;7.70;99.90;;;;;;4996699;28;19910;-68
2022/04/09 08:39:08;;;;;;;;;;;7.70;99.90;;;;;;5013737;28;19916;-67
2022/04/09 08:41:38;;;;;;;;;;;7.70;99.90;;;;;;5014338;28;19913;-67
2022/04/09 08:44:04;;;;;;;;;;;7.80;99.90;;;;;;5014731;28;19999;-68
2022/04/09 08:46:30;;;;;;;;;;;7.90;99.90;;;;;;5014974;28;20417;-66
2022/04/09 08:48:57;;;;;;;;;;;8.10;99.90;;;;;;5014495;28;19933;-67
2022/04/09 08:51:23;;;;;;;;;;;7.90;99.90;;;;;;5013943;28;19910;-68
2022/04/09 08:53:49;;;;;;;;;;;7.90;99.90;;;;;;4996266;28;20268;-66
2022/04/09 08:56:17;;;;;;;;;;;7.70;99.90;;;;;;5013913;28;19917;-66
2022/04/09 08:58:42;;;;;;;;;;;7.60;99.90;;;;;;5014019;28;20283;-68
2022/04/09 09:01:08;;;;;;;;;;;7.50;99.90;;;;;;5013850;28;19916;-66
2022/04/09 09:03:35;;;;;;;;;;;7.50;99.90;;;;;;5013874;28;19910;-67
2022/04/09 09:06:01;;;;;;;;;;;7.70;99.90;;;;;;5014261;28;20259;-66
2022/04/09 09:08:42;;;;;;;;;;;7.70;99.90;;;;;;5015405;28;19909;-67
2022/04/09 09:11:08;;;;;;;;;;;7.70;99.90;;;;;;4996188;28;19935;-67
2022/04/09 09:13:50;;;;;;;;;;;7.70;99.90;;;;;;5013588;28;20442;-68
2022/04/09 09:16:21;;;;;;;;;;;7.60;99.90;;;;;;5013179;28;20351;-68
2022/04/09 09:18:49;;;;;;;;;;;7.80;99.90;;;;;;5013964;28;20003;-67
2022/04/09 09:21:16;;;;;;;;;;;7.80;99.90;;;;;;5013107;28;19916;-69
2022/04/09 09:23:42;;;;;;;;;;;7.80;99.90;;;;;;5013777;28;20093;-68
2022/04/09 09:26:07;;;;;;;;;;;8.00;99.90;;;;;;5013311;28;19990;-68
2022/04/09 09:28:33;;;;;;;;;;;8.10;99.90;;;;;;5013591;28;20008;-68
2022/04/09 09:31:00;;;;;;;;;;;8.10;99.80;;;;;;5013001;28;19952;-68
2022/04/09 09:33:26;;;;;;;;;;;8.20;99.90;;;;;;4995509;28;19910;-68
2022/04/09 09:35:53;;;;;;;;;;;8.30;99.90;;;;;;5013575;28;20004;-66
2022/04/09 09:38:20;;;;;;;;;;;8.40;99.90;;;;;;5013678;28;19932;-68
2022/04/09 09:40:45;;;;;;;;;;;8.60;99.90;;;;;;5012741;28;20314;-66
2022/04/09 09:43:14;;;;;;;;;;;8.80;99.90;;;;;;5013187;28;19968;-67
2022/04/09 09:45:41;;;;;;;;;;;8.80;99.90;;;;;;5013129;28;19910;-68
2022/04/09 09:48:17;;;;;;;;;;;8.60;99.90;;;;;;5012947;28;19910;-67
2022/04/09 09:50:43;;;;;;;;;;;8.50;99.90;;;;;;5012540;28;19917;-67
2022/04/09 09:53:08;;;;;;;;;;;8.40;99.90;;;;;;5013034;28;19918;-66
2022/04/09 09:55:41;;;;;;;;;;;8.40;99.90;;;;;;4995127;28;19996;-66
2022/04/09 09:58:07;;;;;;;;;;;8.50;99.90;;;;;;5012813;28;19910;-67
2022/04/09 10:00:33;;;;;;;;;;;8.50;99.90;;;;;;5012596;28;19916;-66
2022/04/09 10:02:58;;;;;;;;;;;8.20;99.90;;;;;;5012579;28;19916;-66
2022/04/09 10:05:24;;;;;;;;;;;7.70;99.90;;;;;;5012636;28;19979;-67
2022/04/09 10:07:50;;;;;;;;;;;7.30;99.90;;;;;;5013153;28;19915;-67
2022/04/09 10:10:15;;;;;;;;;;;6.90;99.90;;;;;;5013619;28;19949;-67
2022/04/09 10:12:41;;;;;;;;;;;6.70;99.90;;;;;;5013301;28;20378;-69
2022/04/09 10:15:07;;;;;;;;;;;6.70;99.90;;;;;;5012923;28;19917;-66
2022/04/09 10:17:33;;;;;;;;;;;6.80;99.90;;;;;;5012712;28;19910;-67
2022/04/09 10:20:01;;;;;;;;;;;7.20;99.90;;;;;;5012290;28;19916;-66
2022/04/09 10:22:31;;;;;;;;;;;7.50;99.90;;;;;;5011892;28;19910;-66
2022/04/09 10:24:58;;;;;;;;;;;7.90;99.90;;;;;;5011380;28;19932;-67
2022/04/09 10:27:34;;;;;;;;;;;8.30;99.90;;;;;;5010532;28;20445;-67
2022/04/09 10:30:01;;;;;;;;;;;8.80;99.90;;;;;;5010326;28;19936;-67
2022/04/09 10:32:40;;;;;;;;;;;9.10;99.90;;;;;;5010174;28;19909;-67
2022/04/09 10:35:21;;;;;;;;;;;9.40;99.90;;;;;;5011027;28;19909;-66
2022/04/09 10:38:05;;;;;;;;;;;9.60;99.90;;;;;;5011805;28;20440;-67
2022/04/09 10:40:31;;;;;;;;;;;9.20;99.90;;;;;;5012231;28;19909;-67
2022/04/09 10:42:56;;;;;;;;;;;9.40;99.90;;;;;;5012925;28;19964;-67
2022/04/09 10:45:21;;;;;;;;;;;9.50;99.90;;;;;;5012830;28;19913;-66
2022/04/09 10:48:14;;;;;;;;;;;9.70;99.90;;;;;;5012795;28;20303;-67
2022/04/09 10:50:51;;;;;;;;;;;9.80;99.90;;;;;;5013088;28;19943;-67
2022/04/09 10:53:17;;;;;;;;;;;9.70;99.90;;;;;;4995450;28;19956;-67
2022/04/09 10:55:43;;;;;;;;;;;9.60;99.90;;;;;;4994751;28;19914;-66
2022/04/09 10:58:10;;;;;;;;;;;9.10;99.90;;;;;;5012852;28;19910;-66
2022/04/09 11:00:37;;;;;;;;;;;7.90;99.90;;;;;;5013100;28;19909;-66
2022/04/09 11:03:04;;;;;;;;;;;7.60;99.90;;;;;;5012808;28;19913;-68
2022/04/09 11:05:29;;;;;;;;;;;7.40;99.90;;;;;;5013183;28;19957;-67
2022/04/09 11:08:08;;;;;;;;;;;7.30;99.90;;;;;;5012652;28;19909;-66
2022/04/09 11:10:34;;;;;;;;;;;7.40;99.90;;;;;;5012035;28;19914;-67
2022/04/09 11:12:59;;;;;;;;;;;7.50;99.90;;;;;;5012306;28;20413;-67
2022/04/09 11:15:27;;;;;;;;;;;7.40;99.90;;;;;;5012407;28;19916;-67
2022/04/09 11:17:57;;;;;;;;;;;7.30;99.90;;;;;;5011006;28;19909;-67
2022/04/09 11:20:23;;;;;;;;;;;7.30;99.90;;;;;;5012199;28;20004;-66
2022/04/09 11:22:52;;;;;;;;;;;7.40;99.90;;;;;;5012414;28;20348;-68
2022/04/09 11:25:19;;;;;;;;;;;7.40;99.90;;;;;;5012569;28;19909;-68
2022/04/09 11:27:44;;;;;;;;;;;7.50;99.90;;;;;;5012572;28;20000;-67
2022/04/09 11:30:10;;;;;;;;;;;7.60;99.90;;;;;;5011756;28;20017;-67
2022/04/09 11:32:38;;;;;;;;;;;7.80;99.90;;;;;;5012329;28;20368;-67
2022/04/09 11:35:10;;;;;;;;;;;7.90;99.90;;;;;;5011989;28;19910;-67
2022/04/09 11:37:39;;;;;;;;;;;8.10;99.90;;;;;;5012453;28;19909;-67
2022/04/09 11:40:06;;;;;;;;;;;8.30;99.90;;;;;;5012032;28;19925;-68
2022/04/09 11:42:50;;;;;;;;;;;8.40;99.90;;;;;;5012166;28;19940;-66
2022/04/09 11:45:17;;;;;;;;;;;8.60;99.90;;;;;;5014009;28;20000;-67
2022/04/09 11:47:43;;;;;;;;;;;8.90;99.90;;;;;;5015889;28;19909;-67
2022/04/09 11:50:10;;;;;;;;;;;9.10;99.90;;;;;;5015397;28;19925;-67
2022/04/09 11:52:36;;;;;;;;;;;9.30;99.90;;;;;;5015742;28;19910;-67
2022/04/09 11:55:06;;;;;;;;;;;9.50;99.90;;;;;;5016066;28;20286;-68
2022/04/09 11:57:31;;;;;;;;;;;9.60;99.90;;;;;;5019874;28;19922;-69
2022/04/09 11:59:57;;;;;;;;;;;9.80;99.90;;;;;;5016539;28;19909;-67
2022/04/09 12:02:24;;;;;;;;;;;9.70;99.90;;;;;;5017152;28;19914;-68
2022/04/09 12:04:50;;;;;;;;;;;9.70;99.90;;;;;;5016142;28;19917;-68
2022/04/09 12:07:16;;;;;;;;;;;9.50;99.90;;;;;;4998358;28;19909;-68
2022/04/09 12:09:41;;;;;;;;;;;9.30;99.90;;;;;;5015140;28;19940;-67
2022/04/09 12:12:07;;;;;;;;;;;9.30;99.90;;;;;;5016241;28;19970;-68
2022/04/09 12:14:33;;;;;;;;;;;9.20;99.90;;;;;;5015775;28;19909;-68
2022/04/09 12:17:08;;;;;;;;;;;9.20;98.40;;;;;;5015292;28;19992;-68
2022/04/09 12:19:33;;;;;;;;;;;9.10;96.20;;;;;;5016901;28;19916;-68
2022/04/09 12:22:19;;;;;;;;;;;9.10;95.20;;;;;;5014233;28;19910;-67
2022/04/09 12:24:48;;;;;;;;;;;9.20;95.40;;;;;;5013076;28;20294;-68
2022/04/09 12:27:13;;;;;;;;;;;9.40;94.00;;;;;;5013303;28;19913;-66
2022/04/09 12:29:51;;;;;;;;;;;9.60;91.90;;;;;;5012840;28;19921;-68
2022/04/09 12:32:18;;;;;;;;;;;9.90;91.40;;;;;;5012154;28;19996;-68
2022/04/09 12:34:56;;;;;;;;;;;10.10;89.30;;;;;;5012687;28;19913;-66
2022/04/09 12:37:23;;;;;;;;;;;10.20;89.30;;;;;;5012631;28;20001;-68
2022/04/09 12:39:49;;;;;;;;;;;10.10;89.50;;;;;;5011629;28;19925;-67
2022/04/09 12:42:15;;;;;;;;;;;9.80;90.20;;;;;;5012023;28;19913;-67
2022/04/09 12:44:40;;;;;;;;;;;9.60;91.30;;;;;;5011510;28;19913;-68
2022/04/09 12:47:07;;;;;;;;;;;9.10;94.90;;;;;;5011153;28;19909;-68
2022/04/09 12:49:33;;;;;;;;;;;8.70;97.20;;;;;;5010767;28;19947;-67
2022/04/09 12:51:58;;;;;;;;;;;8.50;98.40;;;;;;5011563;28;20268;-68
2022/04/09 12:54:24;;;;;;;;;;;8.40;99.60;;;;;;5010910;28;19933;-67
2022/04/09 12:56:50;;;;;;;;;;;8.50;97.50;;;;;;5012565;28;19922;-66
2022/04/09 12:59:17;;;;;;;;;;;8.30;96.10;;;;;;5012774;28;19955;-67
2022/04/09 13:01:43;;;;;;;;;;;8.20;95.10;;;;;;5012891;28;19909;-67
2022/04/09 13:04:10;;;;;;;;;;;8.30;95.00;;;;;;5013485;28;19944;-67
2022/04/09 13:06:37;;;;;;;;;;;8.50;94.80;;;;;;5012950;28;19921;-68
2022/04/09 13:09:03;;;;;;;;;;;8.60;94.70;;;;;;5012884;28;20393;-66
2022/04/09 13:11:28;;;;;;;;;;;8.90;95.10;;;;;;5013518;28;19909;-66
2022/04/09 13:13:54;;;;;;;;;;;9.00;94.40;;;;;;5013826;28;19913;-68
2022/04/09 13:16:19;;;;;;;;;;;9.10;94.80;;;;;;5013391;28;19909;-67
2022/04/09 13:18:45;;;;;;;;;;;9.40;94.00;;;;;;5012655;28;20005;-69
2022/04/09 13:21:10;;;;;;;;;;;9.60;93.50;;;;;;5011594;28;19976;-67
2022/04/09 13:23:38;;;;;;;;;;;9.80;93.70;;;;;;5011817;28;20468;-68
2022/04/09 13:26:04;;;;;;;;;;;10.00;93.50;;;;;;5011452;28;20012;-67
2022/04/09 13:28:29;;;;;;;;;;;10.20;92.20;;;;;;5011469;28;20071;-67
2022/04/09 13:30:55;;;;;;;;;;;10.40;91.90;;;;;;5011224;28;20016;-67
2022/04/09 13:33:20;;;;;;;;;;;10.50;91.20;;;;;;5012587;28;19909;-69
2022/04/09 13:35:46;;;;;;;;;;;10.20;92.00;;;;;;5013888;28;19909;-67
2022/04/09 13:38:12;;;;;;;;;;;10.10;92.90;;;;;;5013123;28;20374;-68
2022/04/09 13:40:37;;;;;;;;;;;9.90;93.40;;;;;;5013027;28;19909;-68
2022/04/09 13:43:03;;;;;;;;;;;9.80;93.50;;;;;;4995268;28;19910;-68
2022/04/09 13:45:28;;;;;;;;;;;9.80;93.60;;;;;;5013179;28;19916;-67
2022/04/09 13:47:53;;;;;;;;;;;9.80;93.40;;;;;;5013033;28;20011;-66
2022/04/09 13:50:20;;;;;;;;;;;9.90;93.30;;;;;;5012398;28;19992;-68
2022/04/09 13:52:46;;;;;;;;;;;10.20;93.10;;;;;;5013048;28;19917;-67
2022/04/09 13:55:11;;;;;;;;;;;10.50;90.40;;;;;;5012880;28;20294;-68
2022/04/09 13:57:37;;;;;;;;;;;10.70;85.50;;;;;;5038891;22;19925;-69
2022/04/09 14:00:03;;;;;;;;;;;10.80;85.70;;;;;;5028187;28;20325;-68
2022/04/09 14:02:30;;;;;;;;;;;10.70;91.60;;;;;;5032314;28;20000;-69
2022/04/09 14:04:58;;;;;;;;;;;10.30;93.30;;;;;;5031918;28;19909;-69
2022/04/09 14:07:23;;;;;;;;;;;10.20;94.50;;;;;;5031114;28;19936;-68
2022/04/09 14:09:48;;;;;;;;;;;9.80;95.10;;;;;;5013863;28;19913;-69
2022/04/09 14:12:14;;;;;;;;;;;9.60;95.10;;;;;;5031801;28;19955;-70
2022/04/09 14:14:39;;;;;;;;;;;9.60;94.40;;;;;;5032243;28;20405;-69
2022/04/09 14:17:05;;;;;;;;;;;9.70;93.50;;;;;;5032237;28;19909;-69
2022/04/09 14:19:31;;;;;;;;;;;9.70;93.00;;;;;;5031717;28;19932;-70
2022/04/09 14:21:57;;;;;;;;;;;9.90;92.80;;;;;;5031815;28;19909;-69
2022/04/09 14:24:22;;;;;;;;;;;9.90;92.30;;;;;;5031707;28;20012;-70
2022/04/09 14:26:47;;;;;;;;;;;10.00;91.70;;;;;;5031851;28;19909;-69